e-Mail: Password: Lost your password? Click here. - Register a new user

c h a v e z j u a r e z . c o m

Weather - Tiempo - Wetter - Temps

METAR DATA MMMX (Mexico City)

Mexico City / Licenci, Mexico (MMMX) 19-26N 099-06W
Sep 24, 2017 - 11:44 PM EDT / 2017.09.25 0344 UTC
Wind: from the W (280 degrees) at 9 MPH (8 KT):0
Visibility: 8 mile(s):0
Sky conditions: mostly cloudy
Temperature: 64 F (18 C)
Dew Point: 55 F (13 C)
Relative Humidity: 72%
Pressure (altimeter): 30.2 in. Hg (1022 hPa)
ob: MMMX 250344Z 28008KT 8SM SCT020 BKN080 BKN200 18/13 A3020 NOSIG RMK 8/532 HZY
cycle: 3

Mexico City

St. Prex




Current weather alarms for Switzerland


www.wetteralarm.ch